Eyr Myken — LCQU — position and weather

sailwx.info

Track history (hours):
 
Tides and Currents Weather Stations Pressure Air Temp Water Temp Dewpoint Dewpoint Depression Visibility Wind Speed Wind Dir Waves Ship Positions

Eyr Myken

Last reported at 2014-Oct-20 18:06 UTC. Time now 2014-Oct-21 03:58 UTC.
Position N 66°36' E 012°59'.

Length 18 m; draft 1.5 m.

Type: Medical transport. MMSI: 257054000.

Date/timePositionNaut miles runAvg speedWind from/ knotsBaromVisibWave heightAir tempDewpointWater temp
2014-Oct-20 18:06N 66°36' E 012°59'5 0.5
2014-Oct-20 08:25N 66°31' E 013°00'4 0.3
2014-Oct-19 20:19N 66°30' E 012°51'14 3.7
2014-Oct-19 16:33N 66°22' E 012°23'2 1.8
2014-Oct-19 15:33N 66°23' E 012°27'10 9.8
2014-Oct-19 14:31N 66°30' E 012°45'8 5.2
2014-Oct-19 13:04N 66°35' E 012°58'1427.0
2014-Oct-19 12:33N 66°23' E 012°43'10 4.5
2014-Oct-19 10:11N 66°15' E 012°25'1015.8
2014-Oct-19 09:33N 66°25' E 012°30'9 0.2
2014-Oct-17 13:05N 66°32' E 012°44'1325.7
2014-Oct-17 12:34N 66°22' E 012°22'14 7.0
2014-Oct-17 10:33N 66°22' E 012°57'16 0.4
2014-Oct-15 13:08N 66°38' E 012°55'2026.3
2014-Oct-15 12:22N 66°32' E 012°07'1620.2
2014-Oct-15 11:33N 66°24' E 012°43'4 0.9
2014-Oct-15 07:29N 66°22' E 012°37'  
Track history (hours):
 
Tides and Currents Weather Stations Pressure Air Temp Water Temp Dewpoint Dewpoint Depression Visibility Wind Speed Wind Dir Waves Ship Positions

Eyr Myken

Last reported at 2014-Oct-20 18:06 UTC. Time now 2014-Oct-21 03:58 UTC.
Position N 66°36' E 012°59'.

Length 18 m; draft 1.5 m.

Type: Medical transport. MMSI: 257054000.

Date/timePositionNaut miles runAvg speedWind from/ knotsBaromVisibWave heightAir tempDewpointWater temp
2014-Oct-20 18:06N 66°36' E 012°59'5 0.5
2014-Oct-20 08:25N 66°31' E 013°00'4 0.3
2014-Oct-19 20:19N 66°30' E 012°51'14 3.7
2014-Oct-19 16:33N 66°22' E 012°23'2 1.8
2014-Oct-19 15:33N 66°23' E 012°27'10 9.8
2014-Oct-19 14:31N 66°30' E 012°45'8 5.2
2014-Oct-19 13:04N 66°35' E 012°58'1427.0
2014-Oct-19 12:33N 66°23' E 012°43'10 4.5
2014-Oct-19 10:11N 66°15' E 012°25'1015.8
2014-Oct-19 09:33N 66°25' E 012°30'9 0.2
2014-Oct-17 13:05N 66°32' E 012°44'1325.7
2014-Oct-17 12:34N 66°22' E 012°22'14 7.0
2014-Oct-17 10:33N 66°22' E 012°57'16 0.4
2014-Oct-15 13:08N 66°38' E 012°55'2026.3
2014-Oct-15 12:22N 66°32' E 012°07'1620.2
2014-Oct-15 11:33N 66°24' E 012°43'4 0.9
2014-Oct-15 07:29N 66°22' E 012°37'  

Dump ship's entire track history